Tiempo atmosférico en la estación meteorológica de Alcuescar, Cáceres (460 m.)



Fecha
DESCASC
Temp. máxima en grados centígrados (hora)
DESCASC
Temp. mínima en grados centígrados (hora)
DESCASC
Temp. media en grados centígrados
DESCASC
Racha de viento máxima en m/sg (hora)
DESCASC
Velocidad máxima media en intervalos de 10 minutos(hora)
DESCASC
Precipitaciones diarias en mm
DESCASC
Precipitaciones de 00:00 a 06:00 en mm
DESCASC
Precipitaciones de 06:00 a 12:00 en mm
DESCASC
Precipitaciones de 12:00 a 18:00 en mm
DESCASC
Precipitaciones de 18:00 a 24:00 en mm
DESCASC
23-05-2018 25.4 (17:50) 14.6 (07:10) 20 5.28 (14:30) 3.61 (19:50) 0 0 0 0 0
22-05-2018 25.1 (19:00) 10.9 (07:00) 18 8.06 (12:50) 4.44 (10:00) 0 0 0 0 0
21-05-2018 22.7 (18:00) 11.1 (07:40) 16.9 8.33 (19:50) 5 (19:50) 0 0 0 0 0
20-05-2018 21.6 (12:50) 11.7 (00:00) 16.7 13.61 (15:20) 7.22 (15:20) 3.8 0 0 3.8 0
19-05-2018 23.2 (14:50) 10.9 (00:00) 17.1 10.56 (15:00) 4.17 (17:50) 0 0 0 0 0
18-05-2018 23.6 (15:00) 12.4 (00:00) 18 18.89 (17:20) 11.11 (17:20) 16.8 0.8 0 4.8 11.2
17-05-2018 27.5 (17:30) 15.2 (00:00) 21.3 16.11 (23:50) 9.17 (23:50) 0 0 0 0 0
16-05-2018 27.2 (19:20) 10.9 (00:00) 19.1 6.67 (17:30) 3.61 (12:30) 0 0 0 0 0
15-05-2018 24.2 (17:00) 8.4 (00:00) 16.3 6.67 (10:20) 4.72 (10:20) 0 0 0 0 0
14-05-2018 22.5 (18:00) 6.8 (00:00) 14.7 12.5 (15:30) 6.94 (15:30) 0 0 0 0 0
13-05-2018 18.7 (18:40) 4.2 (00:00) 11.5 10.28 (18:00) 6.11 (18:00) 0 0 0 0 0
12-05-2018 18 (16:20) 9.5 (00:00) 13.8 13.33 (15:50) 7.5 (17:30) 0 0 0 0 0
11-05-2018 23.7 (17:10) 12.2 (07:40) 18 7.5 (03:10) 4.44 (03:10) 0 0 0 0 0
10-05-2018 24.5 (19:00) 9.1 (00:00) 16.8 7.5 (00:20) 4.72 (10:40) 0 0 0 0 0
09-05-2018 21.2 (17:00) 12.7 (00:00) 17 9.72 (18:30) 6.39 (18:30) 0 0 0 0 0
08-05-2018 25.8 (17:50) 14 (00:00) 19.9 7.22 (18:10) 4.72 (18:10) 0 0 0 0 0
07-05-2018 25.1 (14:20) 13.2 (00:00) 19.2 7.22 (04:50) 5.56 (05:10) 0 0 0 0 0
06-05-2018 24.7 (15:30) 13.1 (00:00) 18.9 11.39 (10:00) 7.5 (10:20) 0 0 0 0 0
05-05-2018 24.2 (17:20) 9.7 (00:00) 17 5.83 (15:00) 3.06 (15:00) 0 0 0 0 0
04-05-2018 20.4 (18:40) 6 (00:00) 13.2 8.33 (15:20) 4.72 (15:30) 0 0 0 0 0
03-05-2018 20.4 (17:20) 7.4 (00:00) 13.9 9.17 (17:20) 5.83 (19:10) 0 0 0 0 0
02-05-2018 17.3 (17:50) 4.8 (00:00) 11 6.39 (15:00) 3.61 (15:00) 0 0 0 0 0
01-05-2018 16 (18:30) 7.1 (03:50) 11.5 11.11 (17:10) 6.11 (17:10) 0.4 0 0.2 0.2 0
30-04-2018 14.7 (18:20) 5.1 (00:00) 9.9 10.56 (15:50) 4.17 (15:50) 0.4 0 0 0.4 0
29-04-2018 13.5 (17:50) 6 (00:00) 9.8 14.44 (16:00) 8.61 (17:40) 6 4.6 0 1.4 0
28-04-2018 14.4 (17:10) 5.6 (00:00) 10 11.39 (22:20) 6.39 (14:40) 0 0 0 0 0
27-04-2018 21.6 (16:50) 8.4 (00:00) 15 9.72 (20:30) 6.11 (20:10) 0 0 0 0 0
26-04-2018 26.6 (17:30) 14.6 (00:00) 20.6 9.72 (01:40) 6.39 (01:40) 0 0 0 0 0
25-04-2018 27.5 (18:20) 12 (00:00) 19.8 7.5 (15:30) 5 (15:00) 0 0 0 0 0
24-04-2018 26 (17:00) 16.5 (00:00) 21.3 11.11 (17:20) 5.83 (08:10) 0 0 0 0 0

Gráficas

Temp. máximas Temp. mínimas Temp. medias Precipitaciones Rachas de viento máximas Velocidades máximas media en intervalos de 10 minutos

Datos horarios

Fecha y hora oficial Temperatura (ºC) Velocidad del viento (km/h) Dirección del viento Racha (km/h) Dirección de racha Precipitación (mm) Presión (hPa) Tendencia (hPa) Humedad (%)
2018-05-23 23:00:00 20.1 6 Sudoeste 7 Sudoeste 0 -- -- 60
2018-05-23 22:00:00 20.7 6 Sudeste 8 Sudeste 0 -- -- 60
2018-05-23 21:00:00 23 6 Sur 18 Sur 0 -- -- 52
2018-05-23 20:00:00 23.3 9 Sur 19 Sudoeste 0 -- -- 51
2018-05-23 19:00:00 23.8 10 Sur 16 Sudeste 0 -- -- 52
2018-05-23 18:00:00 25.2 6 Este 13 Sudeste 0 -- -- 44
2018-05-23 17:00:00 24.8 8 Este 17 Sudeste 0 -- -- 43
2018-05-23 16:00:00 24.8 8 Sur 16 Sur 0 -- -- 44
2018-05-23 15:00:00 24.8 8 Sudeste 19 Sudeste 0 -- -- 44
2018-05-23 14:00:00 24.9 9 Sudeste 19 Sur 0 -- -- 42
2018-05-23 13:00:00 24.2 8 Sur 16 Sudeste 0 -- -- 51
2018-05-23 12:00:00 23.3 5 Sudeste 12 Este 0 -- -- 56
2018-05-23 11:00:00 22 8 Nordeste 13 Nordeste 0 -- -- 53
2018-05-23 10:00:00 19.6 3 Nordeste 5 Norte 0 -- -- 71
2018-05-23 09:00:00 17.5 0 Calma 5 Norte 0 -- -- 77
2018-05-23 08:00:00 15.6 3 Nordeste 6 Oeste 0 -- -- 80
2018-05-23 07:00:00 14.8 3 Noroeste 5 Norte 0 -- -- 79
2018-05-23 06:00:00 15 4 Noroeste 6 Norte 0 -- -- 77
2018-05-23 05:00:00 15.1 4 Nordeste 8 Nordeste 0 -- -- 76
2018-05-23 04:00:00 15.1 6 Nordeste 8 Nordeste 0 -- -- 78
2018-05-23 03:00:00 15.8 3 Nordeste 6 Nordeste 0 -- -- 76
2018-05-23 02:00:00 16.4 4 Oeste 6 Oeste 0 -- -- 75
2018-05-23 01:00:00 16.9 6 Noroeste 9 Noroeste 0 -- -- 74
2018-05-23 00:00:00 18 7 Noroeste 9 Noroeste 0 -- -- 68
2018-05-22 23:00:00 19 5 Oeste 10 Oeste 0 -- -- 66
2018-05-22 22:00:00 20.5 6 Oeste 11 Sudoeste 0 -- -- 55
2018-05-22 21:00:00 22.2 5 Sudoeste 10 Oeste 0 -- -- 48
2018-05-22 20:00:00 24 6 Sudoeste 18 Sur 0 -- -- 45
2018-05-22 19:00:00 25.1 6 Sudoeste 21 Sudoeste 0 -- -- 45
2018-05-22 18:00:00 24.3 13 Sudoeste 24 Sudoeste 0 -- -- 44
2018-05-22 17:00:00 24.3 11 Sudeste 25 Sudoeste 0 -- -- 51
2018-05-22 16:00:00 23.8 4 Sur 21 Sudeste 0 -- -- 52
2018-05-22 15:00:00 23.3 7 Sudeste 25 Sudeste 0 -- -- 55
2018-05-22 14:00:00 22.2 10 Sur 25 Sur 0 -- -- 59
2018-05-22 13:00:00 21.6 14 Sur 29 Sudeste 0 -- -- 67
2018-05-22 12:00:00 20.1 12 Sudeste 22 Sur 0 -- -- 73
2018-05-22 11:00:00 18.9 13 Sur 22 Sudeste 0 -- -- 76
2018-05-22 10:00:00 16.4 16 Sudeste 22 Sudeste 0 -- -- 79
2018-05-22 09:00:00 15 12 Sur 18 Sudeste 0 -- -- 82
2018-05-22 08:00:00 11.5 6 Sur 11 Sur 0 -- -- 95
2018-05-22 07:00:00 10.9 6 Sur 7 Sur 0 -- -- 93
2018-05-22 06:00:00 11.8 6 Sudoeste 16 Sudoeste 0 -- -- 94
2018-05-22 05:00:00 13 10 Sudoeste 15 Sudoeste 0 -- -- 83
2018-05-22 04:00:00 14.1 0 Calma 4 Norte 0 -- -- 73
2018-05-22 03:00:00 14.4 0 Calma 11 Oeste 0 -- -- 65
2018-05-22 02:00:00 15.6 8 Oeste 13 Oeste 0 -- -- 60
2018-05-22 01:00:00 16.1 4 Sur 9 Noroeste 0 -- -- 49
2018-05-22 00:00:00 16.6 7 Noroeste 10 Oeste 0 -- -- 48
2018-05-21 23:00:00 17.2 5 Noroeste 13 Oeste 0 -- -- 56
2018-05-21 22:00:00 18.3 6 Noroeste 12 Sudoeste 0 -- -- 68
2018-05-21 21:00:00 20.2 12 Oeste 24 Oeste 0 -- -- 58
2018-05-21 20:00:00 21.4 17 Oeste 30 Oeste 0 -- -- 56
2018-05-21 19:00:00 21.4 15 Sudoeste 26 Sudoeste 0 -- -- 49
2018-05-21 18:00:00 22.7 14 Oeste 24 Sudoeste 0 -- -- 52
2018-05-21 17:00:00 21.6 5 Norte 16 Norte 0 -- -- 60
2018-05-21 16:00:00 21 9 Norte 22 Oeste 0 -- -- 61
2018-05-21 15:00:00 21.3 8 Oeste 20 Noroeste 0 -- -- 57
2018-05-21 14:00:00 20 6 Oeste 19 Sur 0 -- -- 63
2018-05-21 13:00:00 20.3 4 Sudoeste 17 Sur 0 -- -- 66
2018-05-21 12:00:00 19.9 8 Sur 18 Sudeste 0 -- -- 70
2018-05-21 11:00:00 18.3 8 Sudeste 16 Sur 0 -- -- 77
2018-05-21 10:00:00 16.7 11 Sur 17 Sudeste 0 -- -- 83
2018-05-21 09:00:00 14.8 9 Sur 15 Sur 0 -- -- 90
2018-05-21 08:00:00 12 6 Sur 9 Sudeste 0 -- -- 98
2018-05-21 07:00:00 11.6 4 Sudeste 8 Sudeste 0 -- -- 97
2018-05-21 06:00:00 11.4 6 Sur 8 Sur 0 -- -- 96
2018-05-21 05:00:00 11.6 4 Noroeste 9 Sur 0 -- -- 94
2018-05-21 04:00:00 11.9 8 Sur 10 Sur 0 -- -- 93
2018-05-21 03:00:00 13.2 4 Oeste 7 Sudeste 0 -- -- 91
2018-05-21 02:00:00 13.1 3 Sudeste 5 Sudeste 0 -- -- 90
2018-05-21 01:00:00 13.2 0 Calma 9 Oeste 0 -- -- 91
2018-05-21 00:00:00 13.9 0 Calma 12 Sudoeste 0 -- -- 92
2018-05-20 23:00:00 14.6 8 Oeste 12 Sudoeste 0 -- -- 89
2018-05-20 22:00:00 15 5 Sudoeste 13 Sudeste 0 -- -- 89
2018-05-20 21:00:00 16.5 3 Este 12 Este 0 -- -- 85
2018-05-20 20:00:00 16.9 3 Norte 17 Oeste 0 -- -- 76
2018-05-20 19:00:00 16.7 7 Oeste 14 Oeste 0 -- -- 82
2018-05-20 18:00:00 14.5 6 Sur 22 Este 1 -- -- 88
2018-05-20 17:00:00 14.2 13 Nordeste 36 Este 1.2 -- -- 84
2018-05-20 16:00:00 11.7 17 Sudeste 49 Sudeste 1 -- -- 90
2018-05-20 15:00:00 16.7 13 Nordeste 22 Nordeste 0.6 -- -- 88
2018-05-20 14:00:00 18.9 10 Oeste 20 Sur 0 -- -- 74
2018-05-20 13:00:00 21.2 10 Sur 22 Sur 0 -- -- 63
2018-05-20 12:00:00 21.1 15 Sudeste 22 Sur 0 -- -- 67
2018-05-20 11:00:00 19.3 6 Sudeste 18 Sur 0 -- -- 73
2018-05-20 10:00:00 18.1 9 Sur 18 Sur 0 -- -- 77
2018-05-20 09:00:00 14.8 12 Sur 17 Sur 0 -- -- 91
2018-05-20 08:00:00 14.4 5 Sudeste 8 Sudeste 0 -- -- 88
2018-05-20 07:00:00 14.1 4 Oeste 6 Norte 0 -- -- 88
2018-05-20 06:00:00 13.4 5 Noroeste 6 Noroeste 0 -- -- 90
2018-05-20 05:00:00 12.9 5 Norte 8 Norte 0 -- -- 90
2018-05-20 04:00:00 13.1 7 Norte 10 Norte 0 -- -- 88
2018-05-20 03:00:00 13.8 4 Noroeste 8 Norte 0 -- -- 86
2018-05-20 02:00:00 14.5 5 Norte 7 Noroeste 0 -- -- 81
2018-05-20 01:00:00 14.7 4 Este 8 Norte 0 -- -- 80
2018-05-20 00:00:00 16.1 4 Noroeste 17 Sudoeste 0 -- -- 72
2018-05-19 23:00:00 16.8 9 Oeste 20 Sudoeste 0 -- -- 74
2018-05-19 22:00:00 17.5 5 Oeste 10 Este 0 -- -- 71
2018-05-19 21:00:00 18.7 4 Este 16 Nordeste 0 -- -- 66
2018-05-19 20:00:00 20.6 11 Nordeste 20 Nordeste 0 -- -- 59
2018-05-19 19:00:00 19 11 Nordeste 26 Nordeste 0 -- -- 65
2018-05-19 18:00:00 19 13 Nordeste 26 Nordeste 0 -- -- 72
2018-05-19 17:00:00 21.5 6 Nordeste 14 Noroeste 0 -- -- 57
2018-05-19 16:00:00 23.1 7 Norte 21 Norte 0 -- -- 52
2018-05-19 15:00:00 22.8 8 Noroeste 38 Noroeste 0 -- -- 55
2018-05-19 14:00:00 22.6 8 Nordeste 16 Nordeste 0 -- -- 51
2018-05-19 13:00:00 21.2 5 Norte 13 Nordeste 0 -- -- 57
2018-05-19 12:00:00 19.9 6 Noroeste 10 Noroeste 0 -- -- 69
2018-05-19 11:00:00 18.1 4 Norte 13 Noroeste 0 -- -- 70
2018-05-19 10:00:00 16.2 7 Noroeste 11 Noroeste 0 -- -- 85
2018-05-19 09:00:00 13.7 6 Noroeste 9 Noroeste 0 -- -- 92
2018-05-19 08:00:00 11.6 5 Noroeste 13 Noroeste 0 -- -- 96
2018-05-19 07:00:00 10.9 6 Norte 9 Norte 0 -- -- 94
2018-05-19 06:00:00 12.5 4 Norte 10 Este 0 -- -- 91
2018-05-19 05:00:00 12.7 4 Este 10 Sur 0 -- -- 95
2018-05-19 04:00:00 12.6 4 Sur 8 Sur 0 -- -- 96
2018-05-19 03:00:00 12.8 7 Sudeste 17 Sur 0 -- -- 96
2018-05-19 02:00:00 12.6 11 Sudeste 14 Sudeste 0 -- -- 95
2018-05-19 01:00:00 12.6 10 Sudeste 14 Sudeste 0 -- -- 92
2018-05-19 00:00:00 12.5 4 Sur 14 Sudeste 0 -- -- 91
2018-05-18 23:00:00 13.3 7 Nordeste 10 Nordeste 0 -- -- 88
2018-05-18 22:00:00 13.5 4 Sudoeste 9 Sudoeste 0 -- -- 84
2018-05-18 21:00:00 13.3 6 Sur 20 Este 0 -- -- 88
2018-05-18 20:00:00 13 14 Este 27 Este 3.2 -- -- 93
2018-05-18 19:00:00 12.7 6 Este 32 Nordeste 8 -- -- 94
2018-05-18 18:00:00 13 10 Norte 68 Norte 4.8 -- -- 88
2018-05-18 17:00:00 21 9 Sur 40 Sur 0 -- -- 62
2018-05-18 16:00:00 22.3 14 Sudeste 28 Sudeste 0 -- -- 53
2018-05-18 15:00:00 23.6 17 Sur 32 Sur 0 -- -- 54
2018-05-18 14:00:00 22.3 18 Sur 30 Sur 0 -- -- 54
2018-05-18 13:00:00 21.4 13 Sur 29 Sur 0 -- -- 59
2018-05-18 12:00:00 19.3 12 Sur 20 Sur 0 -- -- 69
2018-05-18 11:00:00 18 11 Oeste 26 Oeste 0 -- -- 73
2018-05-18 10:00:00 15.9 18 Sudoeste 28 Sudoeste 0 -- -- 82
2018-05-18 09:00:00 14.5 11 Oeste 21 Oeste 0 -- -- 85
2018-05-18 08:00:00 13.7 10 Sudoeste 22 Sudoeste 0 -- -- 87
2018-05-18 07:00:00 13.6 6 Sudoeste 14 Sudoeste 0 -- -- 88
2018-05-18 06:00:00 14.5 5 Sur 12 Sudoeste 0.4 -- -- 88
2018-05-18 05:00:00 15.3 8 Sudoeste 17 Oeste 0 -- -- 79
2018-05-18 04:00:00 16.2 9 Oeste 24 Oeste 0 -- -- 71
2018-05-18 03:00:00 16.1 15 Sudoeste 28 Este 0.4 -- -- 73
2018-05-18 02:00:00 16.4 9 Nordeste 32 Nordeste 0 -- -- 69
2018-05-18 01:00:00 15.2 10 Nordeste 45 Norte 0 -- -- 82
2018-05-18 00:00:00 15.9 26 Norte 58 Norte 0 -- -- 78
2018-05-17 23:00:00 19.7 15 Norte 27 Noroeste 0 -- -- 45
2018-05-17 22:00:00 22 5 Sur 6 Sur 0 -- -- 27
2018-05-17 21:00:00 24.2 4 Sur 6 Sur 0 -- -- 28
2018-05-17 20:00:00 25.1 5 Sur 18 Sudeste 0 -- -- 27
2018-05-17 19:00:00 26.1 8 Sudeste 18 Sudeste 0 -- -- 23
2018-05-17 18:00:00 26.7 12 Sudeste 19 Sudeste 0 -- -- 22
2018-05-17 17:00:00 27.4 9 Sur 23 Sur 0 -- -- 23
2018-05-17 16:00:00 25.8 8 Nordeste 14 Este 0 -- -- 27
2018-05-17 15:00:00 26.6 11 Sur 22 Sur 0 -- -- 27
2018-05-17 14:00:00 25.4 13 Sudeste 21 Sudeste 0 -- -- 29
2018-05-17 13:00:00 24.5 12 Sur 24 Sur 0 -- -- 31
2018-05-17 12:00:00 22.9 9 Sudeste 23 Sur 0 -- -- 34
2018-05-17 11:00:00 20.9 13 Sudeste 31 Sur 0 -- -- 36
2018-05-17 10:00:00 19.4 24 Sudeste 40 Sudeste 0 -- -- 39
2018-05-17 09:00:00 18.1 28 Sudeste 40 Sudeste 0 -- -- 41
2018-05-17 08:00:00 16 14 Sudeste 23 Sur 0 -- -- 45
2018-05-17 07:00:00 15.5 18 Sudeste 27 Sudeste 0 -- -- 46
2018-05-17 06:00:00 15.7 15 Sur 21 Sudeste 0 -- -- 46
2018-05-17 05:00:00 15.9 12 Sur 17 Sur 0 -- -- 47
2018-05-17 04:00:00 16.3 8 Sur 11 Sudeste 0 -- -- 46
2018-05-17 03:00:00 16.3 6 Noroeste 9 Noroeste 0 -- -- 46
2018-05-17 02:00:00 16.5 8 Oeste 10 Sudoeste 0 -- -- 47
2018-05-17 01:00:00 17.4 5 Noroeste 16 Nordeste 0 -- -- 46
2018-05-17 00:00:00 19.5 11 Nordeste 17 Nordeste 0 -- -- 38
2018-05-16 23:00:00 20.1 12 Nordeste 15 Nordeste 0 -- -- 42
2018-05-16 22:00:00 21.2 8 Nordeste 10 Nordeste 0 -- -- 41
2018-05-16 21:00:00 24 8 Nordeste 11 Nordeste 0 -- -- 35
2018-05-16 20:00:00 24.9 6 Este 15 Este 0 -- -- 32
2018-05-16 19:00:00 26.4 3 Nordeste 17 Sudeste 0 -- -- 26
2018-05-16 18:00:00 27.1 5 Norte 24 Nordeste 0 -- -- 26
2018-05-16 17:00:00 26.4 5 Este 23 Este 0 -- -- 26
2018-05-16 16:00:00 25.7 11 Nordeste 22 Norte 0 -- -- 27
2018-05-16 15:00:00 25.2 8 Nordeste 20 Nordeste 0 -- -- 30
2018-05-16 14:00:00 24.5 10 Nordeste 22 Este 0 -- -- 31
2018-05-16 13:00:00 24.2 9 Este 23 Nordeste 0 -- -- 35
2018-05-16 12:00:00 22.8 11 Nordeste 21 Este 0 -- -- 41
2018-05-16 11:00:00 21 9 Nordeste 14 Nordeste 0 -- -- 44
2018-05-16 10:00:00 17.6 5 Noroeste 11 Nordeste 0 -- -- 65
2018-05-16 09:00:00 14.5 4 Norte 7 Noroeste 0 -- -- 69
2018-05-16 08:00:00 11.6 3 Norte 9 Noroeste 0 -- -- 77
2018-05-16 07:00:00 11.1 5 Noroeste 8 Norte 0 -- -- 77
2018-05-16 06:00:00 12.6 5 Noroeste 8 Oeste 0 -- -- 65
2018-05-16 05:00:00 12.7 6 Noroeste 9 Noroeste 0 -- -- 65
2018-05-16 04:00:00 13.5 6 Noroeste 7 Noroeste 0 -- -- 60
2018-05-16 03:00:00 14.7 5 Noroeste 9 Noroeste 0 -- -- 57
2018-05-16 02:00:00 15.5 8 Oeste 12 Este 0 -- -- 47
2018-05-16 01:00:00 17.7 9 Nordeste 16 Nordeste 0 -- -- 36
2018-05-16 00:00:00 17.7 11 Nordeste 14 Nordeste 0 -- -- 37
2018-05-15 23:00:00 18.5 9 Nordeste 14 Nordeste 0 -- -- 37
2018-05-15 22:00:00 19.6 8 Nordeste 10 Norte 0 -- -- 36
2018-05-15 21:00:00 22.2 7 Nordeste 13 Norte 0 -- -- 29
2018-05-15 20:00:00 23.8 7 Nordeste 21 Nordeste 0 -- -- 26
2018-05-15 19:00:00 24 8 Nordeste 17 Nordeste 0 -- -- 25
2018-05-15 18:00:00 24.2 11 Nordeste 22 Norte 0 -- -- 25
2018-05-15 17:00:00 24.2 8 Norte 18 Norte 0 -- -- 27
2018-05-15 16:00:00 23.5 8 Nordeste 19 Nordeste 0 -- -- 28
2018-05-15 15:00:00 22.6 9 Nordeste 22 Norte 0 -- -- 32
2018-05-15 14:00:00 21.6 8 Noroeste 21 Noroeste 0 -- -- 39
2018-05-15 13:00:00 20.9 6 Norte 15 Nordeste 0 -- -- 37
2018-05-15 12:00:00 19.8 7 Sur 20 Sur 0 -- -- 41
2018-05-15 11:00:00 19 11 Sur 24 Sur 0 -- -- 44
2018-05-15 10:00:00 17.1 14 Sudeste 23 Sur 0 -- -- 50
2018-05-15 09:00:00 12.3 2 Noroeste 8 Oeste 0 -- -- 72
2018-05-15 08:00:00 9.6 5 Noroeste 8 Noroeste 0 -- -- 82
2018-05-15 07:00:00 8.8 5 Noroeste 11 Oeste 0 -- -- 82
2018-05-15 06:00:00 9.9 4 Noroeste 9 Noroeste 0 -- -- 77
2018-05-15 05:00:00 12.5 0 Calma 6 Norte 0 -- -- 63
2018-05-15 04:00:00 12.3 4 Norte 6 Noroeste 0 -- -- 66
2018-05-15 03:00:00 12.6 4 Noroeste 5 Noroeste 0 -- -- 67
2018-05-15 02:00:00 12.7 4 Noroeste 9 Oeste 0 -- -- 69
2018-05-15 01:00:00 13.3 6 Noroeste 10 Nordeste 0 -- -- 67
2018-05-15 00:00:00 14 5 Oeste 11 Nordeste 0 -- -- 67
2018-05-14 23:00:00 15.5 9 Nordeste 16 Nordeste 0 -- -- 60
2018-05-14 22:00:00 16.7 9 Nordeste 18 Norte 0 -- -- 57
2018-05-14 21:00:00 19.6 10 Norte 32 Norte 0 -- -- 47
2018-05-14 20:00:00 20 17 Nordeste 32 Nordeste 0 -- -- 47
2018-05-14 19:00:00 21.7 16 Nordeste 30 Norte 0 -- -- 43
2018-05-14 18:00:00 22.5 15 Nordeste 31 Nordeste 0 -- -- 41
2018-05-14 17:00:00 22 15 Norte 39 Norte 0 -- -- 42
2018-05-14 16:00:00 21.7 14 Norte 45 Norte 0 -- -- 48
2018-05-14 15:00:00 20.4 24 Norte 37 Norte 0 -- -- 49
2018-05-14 14:00:00 20.2 18 Norte 33 Nordeste 0 -- -- 48
2018-05-14 13:00:00 18.7 15 Norte 31 Norte 0 -- -- 54
2018-05-14 12:00:00 16.9 20 Norte 32 Norte 0 -- -- 59
2018-05-14 11:00:00 15.3 14 Norte 27 Norte 0 -- -- 61
2018-05-14 10:00:00 13 14 Norte 25 Norte 0 -- -- 71
2018-05-14 09:00:00 9.8 9 Noroeste 15 Noroeste 0 -- -- 83
2018-05-14 08:00:00 7.1 8 Noroeste 15 Noroeste 0 -- -- 91
2018-05-14 07:00:00 6.9 8 Norte 24 Norte 0 -- -- 91
2018-05-14 06:00:00 7.4 12 Norte 18 Norte 0 -- -- 89
2018-05-14 05:00:00 7.9 10 Noroeste 19 Norte 0 -- -- 86
2018-05-14 04:00:00 8.3 10 Noroeste 17 Norte 0 -- -- 85
2018-05-14 03:00:00 9.3 7 Noroeste 19 Noroeste 0 -- -- 79
2018-05-14 02:00:00 9.5 8 Noroeste 15 Noroeste 0 -- -- 76
2018-05-14 01:00:00 10.6 9 Noroeste 15 Noroeste 0 -- -- 69
2018-05-11 20:00:00 -- -- -- -- -- -- -- -- --
2018-05-11 19:00:00 -- -- -- -- -- -- -- -- --
2018-05-11 18:00:00 -- -- -- -- -- -- -- -- --
2018-05-11 17:00:00 -- -- -- -- -- -- -- -- --
2018-05-11 16:00:00 22 8 Oeste 21 Oeste 0 -- -- 55
2018-05-11 15:00:00 22 11 Noroeste 21 Oeste 0 -- -- 58
2018-05-11 14:00:00 21.5 7 Oeste 21 Sudoeste 0 -- -- 64
2018-05-11 13:00:00 19.6 12 Oeste 22 Oeste 0 -- -- 67
2018-05-11 12:00:00 18.1 12 Sudoeste 19 Sudoeste 0 -- -- 75
2018-05-11 11:00:00 16.7 12 Sudoeste 18 Oeste 0 -- -- 77
2018-05-11 10:00:00 15.3 14 Sudoeste 22 Sudoeste 0 -- -- 82
2018-05-11 09:00:00 13.8 11 Sudoeste 20 Sur 0 -- -- 89
2018-05-11 08:00:00 12.4 8 Sudoeste 20 Oeste 0 -- -- 94
2018-05-11 07:00:00 12.4 14 Sudoeste 22 Sudoeste 0 -- -- 94
2018-05-11 06:00:00 12.8 14 Sudoeste 22 Sudoeste 0 -- -- 92
2018-05-11 05:00:00 13.2 7 Sudoeste 15 Sudoeste 0 -- -- 90
2018-05-11 04:00:00 13.9 11 Oeste 27 Oeste 0 -- -- 87
2018-05-11 03:00:00 14.9 15 Sudoeste 24 Sudoeste 0 -- -- 83
2018-05-11 02:00:00 16.3 6 Sudeste 11 Sur 0 -- -- 74
2018-05-11 01:00:00 17.6 4 Oeste 6 Noroeste 0 -- -- 67
2018-05-11 00:00:00 18.2 4 Oeste 6 Oeste 0 -- -- 65
2018-05-10 23:00:00 18.7 2 Oeste 8 Oeste 0 -- -- 64
2018-05-10 22:00:00 20 7 Sudoeste 8 Sudoeste 0 -- -- 62
2018-05-10 21:00:00 22.5 3 Sudoeste 9 Sur 0 -- -- 55
2018-05-10 20:00:00 23.4 4 Oeste 11 Sudoeste 0 -- -- 53
2018-05-10 19:00:00 24.5 0 Calma 14 Sur 0 -- -- 49
2018-05-10 18:00:00 23.6 6 Sur 15 Sur 0 -- -- 52
2018-05-10 17:00:00 23.2 9 Sur 23 Sur 0 -- -- 50
2018-05-10 16:00:00 22.5 8 Sudeste 17 Sur 0 -- -- 54
2018-05-10 15:00:00 21.4 5 Sur 14 Sur 0 -- -- 58
2018-05-10 14:00:00 19.8 10 Sudeste 19 Sur 0 -- -- 61
2018-05-10 13:00:00 18.8 12 Sur 24 Sur 0 -- -- 65
2018-05-10 12:00:00 16.8 14 Sur 23 Sur 0 -- -- 74
2018-05-10 11:00:00 15.4 17 Sur 25 Sur 0 -- -- 78
2018-05-10 10:00:00 13.8 14 Sudeste 20 Sudeste 0 -- -- 82
2018-05-10 09:00:00 11.4 4 Sur 13 Sur 0 -- -- 92
2018-05-10 08:00:00 9.2 6 Sudoeste 11 Sudoeste 0 -- -- 97
2018-05-10 07:00:00 9.4 7 Sudoeste 15 Sudoeste 0 -- -- 95
2018-05-10 06:00:00 10.1 4 Oeste 12 Sudoeste 0 -- -- 93
2018-05-10 05:00:00 10.2 7 Sudoeste 15 Sudoeste 0 -- -- 93
2018-05-10 04:00:00 10.5 10 Sudoeste 17 Sudoeste 0 -- -- 92
2018-05-10 03:00:00 10.8 12 Sudoeste 18 Sudoeste 0 -- -- 90
2018-05-10 02:00:00 11.6 6 Oeste 22 Oeste 0 -- -- 88
2018-05-10 01:00:00 12.1 9 Sudoeste 27 Sudoeste 0 -- -- 88
2018-05-10 00:00:00 13.2 12 Oeste 20 Oeste 0 -- -- 84
2018-05-09 23:00:00 14.2 5 Oeste 19 Oeste 0 -- -- 84
2018-05-09 22:00:00 14.8 9 Oeste 22 Oeste 0 -- -- 85
2018-05-09 21:00:00 16 12 Oeste 26 Oeste 0 -- -- 83
2018-05-09 20:00:00 17.5 11 Oeste 31 Oeste 0 -- -- 76
2018-05-09 19:00:00 20 21 Oeste 35 Oeste 0 -- -- 70
2018-05-09 18:00:00 20.7 17 Oeste 32 Oeste 0 -- -- 68
2018-05-09 17:00:00 21.2 19 Oeste 31 Oeste 0 -- -- 67
2018-05-09 16:00:00 20.7 13 Oeste 26 Oeste 0 -- -- 69
2018-05-09 15:00:00 19.2 17 Sudoeste 28 Sudoeste 0 -- -- 75
2018-05-09 14:00:00 17.7 18 Sudoeste 30 Sudoeste 0 -- -- 81
2018-05-09 13:00:00 17.4 16 Sudoeste 25 Oeste 0 -- -- 80
2018-05-09 12:00:00 16.9 13 Sudoeste 19 Sudoeste 0 -- -- 83
2018-05-09 11:00:00 15.7 12 Sudoeste 18 Sudoeste 0 -- -- 85
2018-05-09 10:00:00 15.4 9 Noroeste 14 Noroeste 0 -- -- 86
2018-05-09 09:00:00 15 5 Oeste 11 Oeste 0 -- -- 85
2018-05-09 08:00:00 14.8 9 Oeste 15 Oeste 0 -- -- 85
2018-05-09 07:00:00 13.5 7 Oeste 9 Oeste 0 -- -- 94
2018-05-09 06:00:00 12.8 2 Nordeste 11 Noroeste 0 -- -- 94
2018-05-09 05:00:00 13.6 5 Noroeste 19 Oeste 0 -- -- 92
2018-05-09 04:00:00 14.1 4 Sudoeste 17 Sur 0 -- -- 91
2018-05-09 03:00:00 14.3 4 Sur 24 Sudeste 0 -- -- 92
2018-05-09 02:00:00 15.3 13 Sur 24 Sudoeste 0 -- -- 89
2018-05-09 01:00:00 15.7 14 Sudoeste 28 Sudoeste 0 -- -- 89
2018-05-09 00:00:00 17 11 Sudoeste 21 Oeste 0 -- -- 87
2018-05-08 23:00:00 18.9 8 Noroeste 15 Sudoeste 0 -- -- 81
2018-05-08 22:00:00 20 9 Oeste 25 Sudoeste 0 -- -- 75
2018-05-08 21:00:00 22.9 9 Noroeste 19 Noroeste 0 -- -- 62
2018-05-08 20:00:00 23.4 12 Noroeste 24 Noroeste 0 -- -- 61
2018-05-08 19:00:00 25 14 Oeste 26 Noroeste 0 -- -- 59
2018-05-08 18:00:00 25.2 13 Norte 25 Noroeste 0 -- -- 57
2018-05-08 17:00:00 25.2 12 Noroeste 22 Noroeste 0 -- -- 58
2018-05-08 16:00:00 24.1 14 Noroeste 24 Oeste 0 -- -- 63
2018-05-08 15:00:00 23.8 9 Oeste 26 Noroeste 0 -- -- 64
2018-05-08 14:00:00 22.8 11 Noroeste 19 Noroeste 0 -- -- 65
2018-05-08 13:00:00 21.8 10 Noroeste 18 Noroeste 0 -- -- 66
2018-05-08 12:00:00 19.8 9 Noroeste 15 Noroeste 0 -- -- 75
2018-05-08 11:00:00 17.6 6 Noroeste 12 Noroeste 0 -- -- 81
2018-05-08 10:00:00 16.4 3 Noroeste 7 Norte 0 -- -- 88
2018-05-08 09:00:00 15.2 4 Noroeste 7 Noroeste 0 -- -- 92
2018-05-08 08:00:00 14.3 3 Oeste 7 Norte 0 -- -- 95
2018-05-08 07:00:00 14.2 9 Noroeste 15 Noroeste 0 -- -- 94
2018-05-08 06:00:00 15 4 Oeste 15 Norte 0 -- -- 92
2018-05-08 05:00:00 15.3 5 Nordeste 13 Noroeste 0 -- -- 90
2018-05-08 04:00:00 15.4 3 Oeste 9 Noroeste 0 -- -- 89
2018-05-08 03:00:00 15.9 7 Noroeste 12 Norte 0 -- -- 86
2018-05-08 02:00:00 16.4 10 Norte 21 Noroeste 0 -- -- 85
2018-05-08 01:00:00 17.1 5 Norte 14 Norte 0 -- -- 83
2018-05-08 00:00:00 17.3 9 Norte 14 Norte 0 -- -- 79
2018-05-07 23:00:00 17.6 7 Noroeste 14 Oeste 0 -- -- 77
2018-05-07 22:00:00 19.2 9 Oeste 16 Oeste 0 -- -- 68
2018-05-07 21:00:00 21.6 6 Noroeste 11 Noroeste 0 -- -- 62
2018-05-07 20:00:00 22.8 6 Noroeste 14 Norte 0 -- -- 56
2018-05-07 19:00:00 20.2 8 Noroeste 19 Norte 0 -- -- 62
2018-05-07 18:00:00 23.3 0 Calma 10 Este 0 -- -- 51
2018-05-07 17:00:00 24.2 6 Noroeste 10 Noroeste 0 -- -- 49
2018-05-07 16:00:00 23.8 10 Norte 16 Norte 0 -- -- 48
2018-05-07 15:00:00 23.2 3 Sur 17 Sur 0 -- -- 54
2018-05-07 14:00:00 24.5 7 Sudoeste 16 Sur 0 -- -- 48
2018-05-07 13:00:00 23.4 6 Sur 15 Sudeste 0 -- -- 51
2018-05-07 12:00:00 22.1 8 Sur 18 Sur 0 -- -- 60
2018-05-07 11:00:00 20.7 9 Sudeste 19 Sudeste 0 -- -- 59
2018-05-07 10:00:00 18.1 13 Sudeste 21 Sur 0 -- -- 72
2018-05-07 09:00:00 16.6 13 Sur 18 Sur 0 -- -- 76
2018-05-07 08:00:00 13.8 12 Sur 17 Sur 0 -- -- 82
2018-05-07 07:00:00 13.2 7 Sur 10 Sudeste 0 -- -- 85
2018-05-07 06:00:00 13.7 9 Sudeste 24 Sur 0 -- -- 84
2018-05-07 05:00:00 14.1 19 Sur 26 Sur 0 -- -- 83
2018-05-07 04:00:00 14.5 14 Sur 17 Sur 0 -- -- 81
2018-05-07 03:00:00 14.9 3 Sudoeste 10 Sur 0 -- -- 77
2018-05-07 02:00:00 16 9 Sur 14 Sur 0 -- -- 73
2018-05-07 01:00:00 17 9 Sudeste 15 Sur 0 -- -- 69
2018-05-07 00:00:00 18.7 5 Sudeste 10 Sudeste 0 -- -- 59
2018-05-06 23:00:00 18.4 4 Sudeste 11 Este 0 -- -- 61
2018-05-06 22:00:00 18.7 8 Este 13 Este 0 -- -- 67
2018-05-06 21:00:00 21.1 10 Este 18 Este 0 -- -- 59
2018-05-06 20:00:00 21.2 10 Nordeste 23 Este 0 -- -- 58
2018-05-06 19:00:00 22.4 14 Este 24 Nordeste 0 -- -- 52
2018-05-06 18:00:00 19.9 10 Nordeste 31 Este 0 -- -- 59
2018-05-06 17:00:00 20 20 Este 35 Este 0 -- -- 56
2018-05-06 16:00:00 22.6 9 Sur 23 Sur 0 -- -- 46
2018-05-06 15:00:00 23.2 16 Sudeste 28 Sudeste 0 -- -- 47
2018-05-06 14:00:00 22.4 16 Sur 30 Sudeste 0 -- -- 53
2018-05-06 13:00:00 21.1 17 Sudeste 31 Sur 0 -- -- 58
2018-05-06 12:00:00 20.4 19 Sudeste 35 Sudeste 0 -- -- 57
2018-05-06 11:00:00 19.3 24 Sudeste 41 Sudeste 0 -- -- 60
2018-05-06 10:00:00 18.3 26 Sudeste 41 Sur 0 -- -- 64
2018-05-06 09:00:00 17.1 18 Sudeste 28 Sudeste 0 -- -- 67
2018-05-06 08:00:00 15.2 14 Sudeste 28 Sudeste 0 -- -- 72
2018-05-06 07:00:00 13.1 17 Sur 22 Sur 0 -- -- 76
2018-05-06 06:00:00 14.1 8 Este 18 Sur 0 -- -- 67
2018-05-06 05:00:00 15.5 0 Calma 9 Nordeste 0 -- -- 57
2018-05-06 04:00:00 15.6 7 Nordeste 9 Nordeste 0 -- -- 56
2018-05-06 03:00:00 15.7 6 Nordeste 8 Nordeste 0 -- -- 56
2018-05-06 02:00:00 16.1 0 Calma -- -- 0 -- -- 55
2018-05-06 01:00:00 16.1 3 Norte 6 Norte 0 -- -- 58
2018-05-06 00:00:00 17 4 Norte 5 Norte 0 -- -- 55
2018-05-05 23:00:00 17.6 4 Nordeste 7 Nordeste 0 -- -- 53
2018-05-05 22:00:00 19.2 5 Nordeste 9 Nordeste 0 -- -- 48
2018-05-05 21:00:00 22 5 Noroeste 11 Noroeste 0 -- -- 42
2018-05-05 20:00:00 23.4 3 Nordeste 15 Norte 0 -- -- 32
2018-05-05 19:00:00 23.9 8 Norte 14 Noroeste 0 -- -- 35
2018-05-05 18:00:00 24.1 9 Noroeste 20 Norte 0 -- -- 36
2018-05-05 17:00:00 23.6 6 Norte 17 Norte 0 -- -- 37
2018-05-05 16:00:00 23.2 8 Noroeste 18 Noroeste 0 -- -- 39
2018-05-05 15:00:00 22.3 11 Noroeste 21 Noroeste 0 -- -- 40
2018-05-05 14:00:00 21.7 7 Noroeste 15 Noroeste 0 -- -- 41
2018-05-05 13:00:00 21.1 6 Noroeste 15 Noroeste 0 -- -- 43
2018-05-05 12:00:00 19.4 4 Norte 9 Noroeste 0 -- -- 49
2018-05-05 11:00:00 16.8 5 Noroeste 8 Noroeste 0 -- -- 64
2018-05-05 10:00:00 13.7 4 Noroeste 8 Noroeste 0 -- -- 74
2018-05-05 09:00:00 10.8 4 Noroeste 11 Noroeste 0 -- -- 82
2018-05-05 08:00:00 10.3 7 Noroeste 12 Norte 0 -- -- 79
2018-05-05 07:00:00 10.7 3 Noroeste 6 Noroeste 0 -- -- 75
2018-05-05 06:00:00 9.8 7 Noroeste 8 Noroeste 0 -- -- 86
2018-05-05 05:00:00 10.3 6 Noroeste 9 Noroeste 0 -- -- 79
2018-05-05 04:00:00 10.9 5 Noroeste 9 Norte 0 -- -- 80
2018-05-05 03:00:00 11.5 6 Norte 8 Norte 0 -- -- 73
2018-05-05 02:00:00 12.4 6 Norte 8 Norte 0 -- -- 70
2018-05-05 01:00:00 13.8 5 Nordeste 12 Nordeste 0 -- -- 60
2018-05-05 00:00:00 14.3 9 Este 12 Este 0 -- -- 57
2018-05-04 23:00:00 14.4 8 Este 10 Nordeste 0 -- -- 61
2018-05-04 22:00:00 15.7 6 Nordeste 8 Nordeste 0 -- -- 57
2018-05-04 21:00:00 17.8 4 Este 12 Nordeste 0 -- -- 49
2018-05-04 20:00:00 18.6 9 Este 20 Este 0 -- -- 45
2018-05-04 19:00:00 19.8 9 Nordeste 22 Nordeste 0 -- -- 40
2018-05-04 18:00:00 20.3 10 Nordeste 26 Norte 0 -- -- 39
2018-05-04 17:00:00 19.9 7 Nordeste 23 Noroeste 0 -- -- 39
2018-05-04 16:00:00 19.5 13 Nordeste 30 Nordeste 0 -- -- 38
2018-05-04 15:00:00 19 13 Nordeste 27 Este 0 -- -- 35
2018-05-04 14:00:00 18.3 12 Nordeste 24 Sudeste 0 -- -- 43
2018-05-04 13:00:00 16.9 10 Nordeste 22 Este 0 -- -- 49
2018-05-04 12:00:00 15.5 7 Nordeste 17 Nordeste 0 -- -- 54
2018-05-04 11:00:00 13.2 7 Norte 13 Norte 0 -- -- 60
2018-05-04 10:00:00 11.6 8 Nordeste 12 Este 0 -- -- 65
2018-05-04 09:00:00 9.2 6 Nordeste 11 Nordeste 0 -- -- 72
2018-05-04 08:00:00 6.1 5 Noroeste 13 Nordeste 0 -- -- 83
2018-05-04 07:00:00 6.3 7 Norte 11 Norte 0 -- -- 80
2018-05-04 06:00:00 6.8 6 Norte 10 Norte 0 -- -- 82
2018-05-04 05:00:00 7.6 4 Oeste 8 Oeste 0 -- -- 78
2018-05-04 04:00:00 8.9 5 Norte 11 Nordeste 0 -- -- 72
2018-05-04 03:00:00 10.5 5 Nordeste 14 Nordeste 0 -- -- 63
2018-05-04 02:00:00 10.2 5 Norte 15 Nordeste 0 -- -- 68
2018-05-04 01:00:00 10.3 5 Noroeste 12 Norte 0 -- -- 72
2018-05-04 00:00:00 11.3 5 Oeste 12 Norte 0 -- -- 67
2018-05-03 23:00:00 13.1 10 Norte 28 Nordeste 0 -- -- 59
2018-05-03 22:00:00 15 15 Norte 27 Norte 0 -- -- 54
2018-05-03 21:00:00 17.5 17 Norte 32 Norte 0 -- -- 48
2018-05-03 20:00:00 19.7 17 Norte 32 Norte 0 -- -- 44
2018-05-03 19:00:00 19.7 16 Norte 28 Norte 0 -- -- 47
2018-05-03 18:00:00 20.4 15 Norte 33 Norte 0 -- -- 47
2018-05-03 17:00:00 20.1 19 Nordeste 31 Norte 0 -- -- 49
2018-05-03 16:00:00 18.4 16 Norte 26 Noroeste 0 -- -- 55
2018-05-03 15:00:00 20 16 Norte 30 Norte 0 -- -- 51
2018-05-03 14:00:00 18.4 11 Norte 22 Noroeste 0 -- -- 57
2018-05-03 13:00:00 18.6 9 Norte 22 Norte 0 -- -- 60
2018-05-03 12:00:00 16.9 10 Nordeste 22 Norte 0 -- -- 64
2018-05-03 11:00:00 14.9 10 Norte 19 Nordeste 0 -- -- 73
2018-05-03 10:00:00 12.2 10 Norte 14 Noroeste 0 -- -- 85
2018-05-03 09:00:00 9.3 5 Noroeste 11 Noroeste 0 -- -- 95
2018-05-03 08:00:00 7.7 8 Norte 12 Noroeste 0 -- -- 97
2018-05-03 07:00:00 7.6 7 Norte 12 Noroeste 0 -- -- 96
2018-05-03 06:00:00 8.3 9 Norte 16 Norte 0 -- -- 95
2018-05-03 05:00:00 8.6 7 Norte 12 Norte 0 -- -- 93
2018-05-03 04:00:00 8.6 6 Norte 10 Norte 0 -- -- 92
2018-05-03 03:00:00 8.5 5 Noroeste 7 Noroeste 0 -- -- 90
2018-05-03 02:00:00 9.2 6 Noroeste 8 Noroeste 0 -- -- 86
2018-05-03 01:00:00 10 5 Noroeste 10 Noroeste 0 -- -- 84
2018-05-03 00:00:00 10.6 5 Noroeste 9 Oeste 0 -- -- 79
2018-05-02 23:00:00 11.3 8 Noroeste 13 Noroeste 0 -- -- 75
2018-05-02 22:00:00 11.8 6 Noroeste 12 Noroeste 0 -- -- 73
2018-05-02 21:00:00 14.4 8 Noroeste 18 Noroeste 0 -- -- 63
2018-05-02 20:00:00 15.7 12 Noroeste 19 Oeste 0 -- -- 57
2018-05-02 19:00:00 16.6 12 Noroeste 20 Noroeste 0 -- -- 51
2018-05-02 18:00:00 16.4 9 Noroeste 23 Noroeste 0 -- -- 51
2018-05-02 17:00:00 16.6 9 Noroeste 20 Noroeste 0 -- -- 50
2018-05-02 16:00:00 15.8 6 Norte 20 Noroeste 0 -- -- 49
2018-05-02 15:00:00 15.9 13 Noroeste 23 Oeste 0 -- -- 44
2018-05-02 14:00:00 14.8 6 Sudoeste 16 Noroeste 0 -- -- 52
2018-05-02 13:00:00 13.5 9 Noroeste 17 Oeste 0 -- -- 55
2018-05-02 12:00:00 12.3 8 Noroeste 18 Oeste 0 -- -- 57
2018-05-02 11:00:00 10.5 7 Noroeste 16 Noroeste 0 -- -- 65
2018-05-02 10:00:00 8.7 6 Noroeste 14 Noroeste 0 -- -- 74
2018-05-02 09:00:00 7.6 5 Noroeste 11 Noroeste 0 -- -- 80
2018-05-02 08:00:00 5.1 5 Noroeste 10 Oeste 0 -- -- 90
2018-05-02 07:00:00 5 9 Oeste 15 Sudoeste 0 -- -- 91
2018-05-02 06:00:00 5.9 10 Oeste 16 Sudoeste 0 -- -- 84
2018-05-02 05:00:00 7 5 Oeste 10 Sudoeste 0 -- -- 73
2018-05-02 04:00:00 7.1 7 Oeste 9 Oeste 0 -- -- 76
2018-05-02 03:00:00 7.1 3 Noroeste 8 Norte 0 -- -- 78
2018-05-02 02:00:00 8.1 5 Norte 12 Norte 0 -- -- 74
2018-05-02 01:00:00 9.2 8 Norte 17 Norte 0 -- -- 71
2018-05-02 00:00:00 10.5 6 Norte 12 Norte 0 -- -- 68
2018-05-01 23:00:00 11.4 4 Sudoeste 12 Sudoeste 0 -- -- 61
2018-05-01 22:00:00 12.6 6 Sudoeste 12 Sudoeste 0 -- -- 57
2018-05-01 21:00:00 15 3 Norte 10 Norte 0 -- -- 48
2018-05-01 20:00:00 15.5 7 Nordeste 22 Este 0 -- -- 45
2018-05-01 19:00:00 15.7 8 Nordeste 21 Nordeste 0 -- -- 44
2018-05-01 18:00:00 15.6 11 Nordeste 40 Nordeste 0.2 -- -- 47
2018-05-01 17:00:00 15.1 14 Nordeste 29 Norte 0 -- -- 47
2018-05-01 16:00:00 15.1 12 Norte 25 Norte 0 -- -- 48
2018-05-01 15:00:00 15 13 Nordeste 26 Norte 0 -- -- 49
2018-05-01 14:00:00 14.5 15 Nordeste 25 Norte 0 -- -- 54
2018-05-01 13:00:00 13.3 11 Norte 23 Norte 0 -- -- 60
2018-05-01 12:00:00 12.9 13 Norte 22 Nordeste 0 -- -- 62
2018-05-01 11:00:00 10.9 11 Noroeste 21 Norte 0 -- -- 78
2018-05-01 10:00:00 9.4 8 Norte 17 Noroeste 0 -- -- 88
2018-05-01 09:00:00 7.7 4 Noroeste 10 Noroeste 0 -- -- 97
2018-05-01 08:00:00 7.4 4 Noroeste 13 Norte 0.2 -- -- 96
2018-05-01 07:00:00 7.2 9 Norte 15 Norte 0 -- -- 94
2018-05-01 06:00:00 7.2 5 Norte 8 Norte 0 -- -- 91
2018-05-01 05:00:00 7.3 2 Noroeste 6 Noroeste 0 -- -- 92
2018-05-01 04:00:00 7.1 4 Noroeste 6 Noroeste 0 -- -- 91
2018-05-01 03:00:00 7.6 5 Noroeste 11 Norte 0 -- -- 89
2018-05-01 02:00:00 8.3 7 Norte 13 Norte 0 -- -- 87
2018-05-01 01:00:00 8.8 6 Norte 12 Norte 0 -- -- 83
2018-05-01 00:00:00 9.8 7 Norte 12 Norte 0 -- -- 76
2018-04-30 23:00:00 9.9 6 Norte 11 Noroeste 0 -- -- 74
2018-04-30 22:00:00 10 5 Noroeste 15 Noroeste 0 -- -- 71
2018-04-30 21:00:00 11.4 12 Noroeste 20 Noroeste 0 -- -- 64
2018-04-30 20:00:00 13.5 9 Norte 23 Norte 0 -- -- 55
2018-04-30 19:00:00 13.8 10 Noroeste 21 Noroeste 0 -- -- 54
2018-04-30 18:00:00 14.4 12 Noroeste 28 Noroeste 0 -- -- 51
2018-04-30 17:00:00 12.2 9 Oeste 22 Noroeste 0 -- -- 66
2018-04-30 16:00:00 10.6 15 Noroeste 38 Noroeste 0.4 -- -- 67
2018-04-30 15:00:00 11.9 8 Oeste 15 Norte 0 -- -- 65
2018-04-30 14:00:00 11.2 5 Norte 23 Oeste 0 -- -- 67
2018-04-30 13:00:00 11.3 5 Oeste 25 Oeste 0 -- -- 69
2018-04-30 12:00:00 9.8 6 Noroeste 20 Oeste 0 -- -- 75
2018-04-30 11:00:00 9 6 Noroeste 17 Oeste 0 -- -- 78
2018-04-30 10:00:00 7.9 8 Oeste 13 Oeste 0 -- -- 85
2018-04-30 09:00:00 6.8 3 Sudoeste 6 Oeste 0 -- -- 90
2018-04-30 08:00:00 5.9 0 Calma 6 Sudoeste 0 -- -- 92
2018-04-30 07:00:00 5.6 3 Oeste 5 Oeste 0 -- -- 91
2018-04-30 06:00:00 5.1 0 Calma 5 Oeste 0 -- -- 89
2018-04-30 05:00:00 5.8 3 Oeste 5 Oeste 0 -- -- 86
2018-04-30 04:00:00 5.5 2 Noroeste 4 Noroeste 0 -- -- 85
2018-04-30 03:00:00 5.5 4 Noroeste 8 Noroeste 0 -- -- 86
2018-04-30 02:00:00 5.8 4 Norte 7 Norte 0 -- -- 88
2018-04-30 01:00:00 5.9 3 Noroeste 6 Norte 0 -- -- 84
2018-04-30 00:00:00 7 0 Calma 13 Noroeste 0 -- -- 80
2018-04-29 23:00:00 7.6 10 Noroeste 19 Noroeste 0 -- -- 75
2018-04-29 22:00:00 9 15 Noroeste 28 Noroeste 0 -- -- 68
2018-04-29 21:00:00 10.7 15 Noroeste 40 Oeste 0 -- -- 57
2018-04-29 20:00:00 12.2 28 Noroeste 45 Oeste 0 -- -- 52
2018-04-29 19:00:00 13.1 25 Noroeste 52 Noroeste 0 -- -- 48
2018-04-29 18:00:00 13.1 24 Noroeste 48 Oeste 0 -- -- 62
2018-04-29 17:00:00 11.5 17 Oeste 41 Noroeste 0 -- -- 75
2018-04-29 16:00:00 9.3 30 Noroeste 52 Noroeste 0.2 -- -- 82
2018-04-29 15:00:00 11.4 23 Oeste 40 Oeste 0 -- -- 74
2018-04-29 14:00:00 8.1 19 Oeste 47 Oeste 1.2 -- -- 92
2018-04-29 13:00:00 11.7 24 Oeste 42 Oeste 0 -- -- 67
2018-04-29 12:00:00 9.7 24 Oeste 37 Oeste 0 -- -- 78
2018-04-29 11:00:00 9 19 Oeste 39 Noroeste 0 -- -- 84
2018-04-29 10:00:00 7.4 19 Oeste 35 Oeste 0 -- -- 90
2018-04-29 09:00:00 6.5 19 Oeste 38 Oeste 0 -- -- 93
2018-04-29 08:00:00 6.2 20 Oeste 35 Oeste 0 -- -- 94
2018-04-29 07:00:00 6.1 16 Oeste 40 Oeste 0 -- -- 94
2018-04-29 06:00:00 6.4 22 Noroeste 37 Noroeste 0 -- -- 95
2018-04-29 05:00:00 6.5 18 Oeste 36 Oeste 0 -- -- 96
2018-04-29 04:00:00 6.7 21 Oeste 34 Oeste 0.2 -- -- 96
2018-04-29 03:00:00 6.7 13 Oeste 27 Oeste 0.2 -- -- 95
2018-04-29 02:00:00 6.6 10 Oeste 25 Oeste 2 -- -- 93
2018-04-29 01:00:00 7.2 6 Noroeste 21 Noroeste 2.2 -- -- 94
2018-04-29 00:00:00 7.9 10 Noroeste 17 Noroeste 0 -- -- 91
2018-04-28 23:00:00 7.9 9 Noroeste 41 Oeste 0 -- -- 91
2018-04-28 22:00:00 10.5 17 Oeste 28 Oeste 0 -- -- 68
2018-04-28 21:00:00 11.9 5 Oeste 14 Sudoeste 0 -- -- 62
2018-04-28 20:00:00 13 7 Oeste 21 Oeste 0 -- -- 54
2018-04-28 19:00:00 13.4 13 Oeste 26 Oeste 0 -- -- 53
2018-04-28 18:00:00 13.6 14 Oeste 35 Oeste 0 -- -- 50
2018-04-28 17:00:00 14.1 11 Oeste 31 Oeste 0 -- -- 48
2018-04-28 16:00:00 13.9 16 Oeste 36 Oeste 0 -- -- 48
2018-04-28 15:00:00 13.2 16 Oeste 32 Sudoeste 0 -- -- 54
2018-04-28 14:00:00 12.7 13 Oeste 28 Noroeste 0 -- -- 57
2018-04-28 13:00:00 12.1 11 Oeste 23 Sudoeste 0 -- -- 63
2018-04-28 12:00:00 10.6 11 Oeste 23 Oeste 0 -- -- 74
2018-04-28 11:00:00 8.9 11 Oeste 23 Noroeste 0 -- -- 81
2018-04-28 10:00:00 7.9 12 Oeste 20 Oeste 0 -- -- 85
2018-04-28 09:00:00 6.4 10 Oeste 19 Oeste 0 -- -- 94
2018-04-28 08:00:00 5.6 8 Oeste 19 Oeste 0 -- -- 95
2018-04-28 07:00:00 6.1 12 Oeste 26 Oeste 0 -- -- 93
2018-04-28 06:00:00 7 12 Oeste 24 Sudoeste 0 -- -- 89
2018-04-28 05:00:00 9.2 6 Oeste 12 Oeste 0 -- -- 76
2018-04-28 04:00:00 9.8 8 Noroeste 17 Noroeste 0 -- -- 77
2018-04-28 03:00:00 10.2 9 Noroeste 15 Noroeste 0 -- -- 79
2018-04-28 02:00:00 10.3 10 Noroeste 16 Noroeste 0 -- -- 85
2018-04-28 01:00:00 11.6 8 Noroeste 15 Noroeste 0 -- -- 84
2018-04-28 00:00:00 12.6 10 Noroeste 22 Norte 0 -- -- 81
2018-04-27 23:00:00 13.9 12 Noroeste 23 Oeste 0 -- -- 79
2018-04-27 22:00:00 15.1 14 Oeste 31 Oeste 0 -- -- 72
2018-04-27 21:00:00 16.8 21 Oeste 35 Oeste 0 -- -- 66
2018-04-27 20:00:00 19 22 Oeste 34 Oeste 0 -- -- 61
2018-04-27 19:00:00 19.1 18 Oeste 30 Oeste 0 -- -- 63
2018-04-27 18:00:00 21.2 14 Oeste 28 Noroeste 0 -- -- 52
2018-04-27 17:00:00 21.4 12 Oeste 29 Oeste 0 -- -- 49
2018-04-27 16:00:00 21.1 12 Noroeste 27 Oeste 0 -- -- 52
2018-04-27 15:00:00 20 9 Oeste 26 Oeste 0 -- -- 55
2018-04-27 14:00:00 19.2 12 Oeste 21 Oeste 0 -- -- 57
2018-04-27 13:00:00 18.1 9 Oeste 20 Noroeste 0 -- -- 61
2018-04-27 12:00:00 16.7 9 Noroeste 16 Noroeste 0 -- -- 62
2018-04-27 11:00:00 15.1 6 Noroeste 15 Noroeste 0 -- -- 63
2018-04-27 10:00:00 13.1 8 Noroeste 13 Noroeste 0 -- -- 73
2018-04-27 09:00:00 10.8 4 Noroeste 8 Noroeste 0 -- -- 85
2018-04-27 08:00:00 8.6 6 Oeste 8 Oeste 0 -- -- 95
2018-04-27 07:00:00 9 5 Oeste 9 Oeste 0 -- -- 95
2018-04-27 06:00:00 9.9 6 Oeste 17 Sudoeste 0 -- -- 94
2018-04-27 05:00:00 10.9 11 Oeste 22 Sudoeste 0 -- -- 94
2018-04-27 04:00:00 12.1 14 Sudoeste 28 Sudoeste 0 -- -- 93
2018-04-27 03:00:00 13.9 9 Oeste 19 Sudoeste 0 -- -- 91
2018-04-27 02:00:00 17.1 5 Noroeste 10 Noroeste 0 -- -- 85
2018-04-27 01:00:00 18.4 10 Noroeste 17 Oeste 0 -- -- 82
2018-04-27 00:00:00 20.1 8 Noroeste 27 Noroeste 0 -- -- 74
2018-04-26 23:00:00 20.7 8 Oeste 15 Oeste 0 -- -- 66
2018-04-26 22:00:00 20.9 10 Oeste 13 Oeste 0 -- -- 61
2018-04-26 21:00:00 23.2 6 Oeste 11 Oeste 0 -- -- 51
2018-04-26 20:00:00 25.4 8 Oeste 14 Oeste 0 -- -- 41
2018-04-26 19:00:00 26.1 7 Oeste 33 Oeste 0 -- -- 40
2018-04-26 18:00:00 26.2 9 Oeste 23 Sur 0 -- -- 35
2018-04-26 17:00:00 26.3 7 Sudeste 21 Sur 0 -- -- 39
2018-04-26 16:00:00 25.7 10 Sudeste 23 Sudeste 0 -- -- 44
2018-04-26 15:00:00 24.9 14 Sur 23 Sudeste 0 -- -- 45
2018-04-26 14:00:00 24.4 11 Sur 23 Sur 0 -- -- 49
2018-04-26 13:00:00 23.4 12 Sur 24 Sur 0 -- -- 55
2018-04-26 12:00:00 22.1 14 Sur 23 Sudeste 0 -- -- 52
2018-04-26 11:00:00 20.4 15 Sudeste 27 Sudeste 0 -- -- 52
2018-04-26 10:00:00 18.5 20 Sur 29 Sur 0 -- -- 56
2018-04-26 09:00:00 16.8 17 Sudeste 24 Sudeste 0 -- -- 59
2018-04-26 08:00:00 14.9 13 Sur 17 Sur 0 -- -- 67
2018-04-26 07:00:00 15.2 11 Sudeste 19 Sur 0 -- -- 70
2018-04-26 06:00:00 15.7 17 Sur 27 Sur 0 -- -- 72
2018-04-26 05:00:00 15.3 20 Sur 26 Sur 0 -- -- 76
2018-04-26 04:00:00 15.7 9 Sur 12 Sur 0 -- -- 74
2018-04-26 03:00:00 16.1 6 Sur 17 Sur 0 -- -- 73
2018-04-26 02:00:00 17.3 12 Sur 35 Sudeste 0 -- -- 69
2018-04-26 01:00:00 19.1 21 Sudeste 32 Sur 0 -- -- 62
2018-04-26 00:00:00 19.7 5 Noroeste 12 Norte 0 -- -- 75
2018-04-25 23:00:00 20.8 8 Norte 15 Norte 0 -- -- 69
2018-04-25 22:00:00 22 9 Norte 13 Noroeste 0 -- -- 61
2018-04-25 21:00:00 24.2 9 Norte 14 Norte 0 -- -- 53
2018-04-25 20:00:00 26.7 8 Norte 19 Noroeste 0 -- -- 40
2018-04-25 19:00:00 27.4 13 Norte 21 Norte 0 -- -- 36
2018-04-25 18:00:00 27.4 12 Norte 27 Norte 0 -- -- 36
2018-04-25 17:00:00 27 14 Nordeste 25 Nordeste 0 -- -- 39
2018-04-25 16:00:00 26.5 15 Nordeste 27 Nordeste 0 -- -- 37
2018-04-25 15:00:00 25.8 18 Norte 27 Norte 0 -- -- 43
2018-04-25 14:00:00 24.9 14 Nordeste 23 Nordeste 0 -- -- 48
2018-04-25 13:00:00 24.2 11 Nordeste 24 Nordeste 0 -- -- 51
2018-04-25 12:00:00 22.5 14 Nordeste 22 Nordeste 0 -- -- 53
2018-04-25 11:00:00 19.9 6 Noroeste 12 Noroeste 0 -- -- 65
2018-04-25 10:00:00 17.8 8 Norte 11 Norte 0 -- -- 69
2018-04-25 09:00:00 13.9 0 Calma 11 Noroeste 0 -- -- 82
2018-04-25 08:00:00 12 4 Oeste 8 Norte 0 -- -- 87
2018-04-25 07:00:00 15.1 6 Norte 20 Sudeste 0 -- -- 72
2018-04-25 06:00:00 14.7 5 Sur 11 Oeste 0 -- -- 71
2018-04-25 05:00:00 13.7 4 Oeste 15 Noroeste 0 -- -- 81
2018-04-25 04:00:00 17.7 5 Norte 21 Sudeste 0 -- -- 57
2018-04-25 03:00:00 14.7 5 Este 9 Este 0 -- -- 78
2018-04-25 02:00:00 14.9 5 Norte 10 Norte 0 -- -- 79
2018-04-25 01:00:00 15.8 5 Norte 9 Noroeste 0 -- -- 76
2018-04-25 00:00:00 17.2 5 Nordeste 15 Norte 0 -- -- 67
2018-04-24 23:00:00 18.9 10 Nordeste 13 Nordeste 0 -- -- 54
2018-04-24 22:00:00 19.2 9 Este 14 Este 0 -- -- 59
2018-04-24 21:00:00 21.1 7 Nordeste 14 Nordeste 0 -- -- 53
2018-04-24 20:00:00 23.1 9 Nordeste 17 Nordeste 0 -- -- 45
2018-04-24 19:00:00 23.8 9 Nordeste 19 Nordeste 0 -- -- 39
2018-04-24 18:00:00 24.8 9 Este 40 Este 0 -- -- 39
2018-04-24 17:00:00 26 6 Sur 19 Este 0 -- -- 38
2018-04-24 16:00:00 25 5 Nordeste 13 Norte 0 -- -- 40
2018-04-24 15:00:00 23.7 10 Nordeste 18 Este 0 -- -- 42
2018-04-24 14:00:00 23.8 9 Nordeste 17 Sur 0 -- -- 42
2018-04-24 13:00:00 23.5 8 Sudeste 20 Sur 0 -- -- 30
2018-04-24 12:00:00 21.7 6 Sudeste 18 Sudeste 0 -- -- 35
2018-04-24 11:00:00 17.7 3 Oeste 10 Noroeste 0 -- -- 71
2018-04-24 10:00:00 17 3 Noroeste 14 Sudeste 0 -- -- 64
2018-04-24 09:00:00 16.5 10 Sudeste 32 Sur 0 -- -- 57
2018-04-24 08:00:00 17.2 19 Sur 26 Sur 0 -- -- 56
2018-04-24 07:00:00 17.1 12 Sudeste 30 Este 0 -- -- 63
2018-04-24 06:00:00 17.2 5 Nordeste 24 Este 0 -- -- 66
2018-04-24 05:00:00 18.1 11 Nordeste 27 Nordeste 0 -- -- 63
2018-04-24 04:00:00 20.1 18 Este 31 Este 0 -- -- 50
2018-04-24 03:00:00 20.2 3 Sudoeste 24 Sudeste 0 -- -- 55
2018-04-24 02:00:00 19.9 9 Sudeste 17 Sudeste 0 -- -- 54
2018-04-24 01:00:00 20.8 6 Este 16 Sudeste 0 -- -- 53
2018-04-24 00:00:00 21.2 6 Este 18 Sudeste 0 -- -- 56